Time;durP1;ratioP1;P1;durP2;ratioP2;P2;SDS_P1;SDS_P2;PMS_P1;PMS_P2;Temp;Humidity;BMP_temperature;BMP_pressure;BME280_temperature;BME280_humidity;BME280_pressure;Samples;Min_cycle;Max_cycle;Signal;HPM_P1;HPM_P2
2022/01/14 02:13:16;;;;;;;1371.68;957.30;;;4.20;99.90;;;;;;6067034;23;20094;-79
2022/01/14 02:15:46;;;;;;;1355.53;931.67;;;4.20;99.90;;;;;;6054740;23;20114;-82
2022/01/14 02:18:30;;;;;;;1393.25;964.10;;;5.80;99.90;;;;;;6064433;23;20050;-81
2022/01/14 02:23:47;;;;;;;1377.20;957.05;;;5.80;99.90;;;;;;6089729;23;20026;-79
2022/01/14 02:26:16;;;;;;;1401.05;995.13;;;5.80;99.90;;;;;;6065099;23;20032;-82
2022/01/14 02:28:42;;;;;;;1319.07;889.47;;;5.80;99.90;;;;;;6065703;23;20110;-79
2022/01/14 02:31:08;;;;;;;1424.95;998.50;;;5.80;99.90;;;;;;6089015;23;20022;-79
2022/01/14 02:33:33;;;;;;;1359.45;940.58;;;5.80;99.90;;;;;;6064605;23;20015;-81
2022/01/14 02:36:00;;;;;;;1385.43;958.90;;;5.80;99.90;;;;;;6090099;23;20104;-79
2022/01/14 02:38:26;;;;;;;1387.72;966.38;;;5.90;99.90;;;;;;6064568;23;20019;-79
2022/01/14 02:40:51;;;;;;;1431.28;936.65;;;5.80;99.90;;;;;;6064665;23;20352;-79
2022/01/14 02:43:17;;;;;;;1348.88;949.47;;;5.80;99.90;;;;;;6064268;23;20162;-79
2022/01/14 02:45:51;;;;;;;1384.50;972.00;;;5.80;99.90;;;;;;6063329;23;20046;-79
2022/01/14 02:48:18;;;;;;;1340.00;931.92;;;5.90;99.90;;;;;;6065301;23;20454;-79
2022/01/14 02:56:01;;;;;;;1305.53;916.30;;;5.80;99.90;;;;;;6089847;23;20022;-81
2022/01/14 02:58:29;;;;;;;1329.20;940.25;;;5.90;99.90;;;;;;6065743;23;20022;-82
2022/01/14 03:01:02;;;;;;;1294.63;863.72;;;5.80;99.90;;;;;;6090977;23;20316;-78
2022/01/14 03:03:30;;;;;;;1260.25;868.90;;;5.80;99.90;;;;;;6065245;23;20019;-78
2022/01/14 03:05:56;;;;;;;1211.65;789.60;;;5.90;99.90;;;;;;6065942;23;20046;-81
2022/01/14 03:08:23;;;;;;;1288.40;836.58;;;5.90;99.90;;;;;;6063866;23;20034;-78
2022/01/14 03:11:00;;;;;;;1221.03;782.83;;;5.90;99.90;;;;;;6058149;23;20015;-78
2022/01/14 03:13:26;;;;;;;1220.85;815.95;;;5.90;99.90;;;;;;6060504;23;20023;-80
2022/01/14 03:15:52;;;;;;;1179.72;760.03;;;5.90;99.90;;;;;;6059838;23;20019;-79
2022/01/14 03:18:28;;;;;;;1181.93;774.47;;;5.90;99.90;;;;;;6060140;23;20034;-80
2022/01/14 03:21:07;;;;;;;1226.22;755.00;;;5.90;99.90;;;;;;6060343;23;20011;-79
2022/01/14 03:23:45;;;;;;;1169.13;742.00;;;5.90;99.90;;;;;;6061097;23;20447;-79
2022/01/14 03:26:12;;;;;;;1190.13;789.38;;;5.90;99.90;;;;;;6060725;23;20014;-80
2022/01/14 03:28:38;;;;;;;1128.40;622.88;;;5.90;99.90;;;;;;6059387;23;20019;-79
2022/01/14 03:31:04;;;;;;;1103.30;679.20;;;5.90;99.90;;;;;;6060391;23;20078;-79
2022/01/14 03:33:30;;;;;;;1110.25;685.63;;;5.90;99.90;;;;;;6060475;23;20625;-79
2022/01/14 03:35:55;;;;;;;1141.53;660.40;;;5.90;99.90;;;;;;6061958;23;20059;-79
2022/01/14 03:38:21;;;;;;;1157.63;672.25;;;5.90;99.90;;;;;;6062952;23;20090;-79
2022/01/14 03:40:46;;;;;;;1147.93;742.85;;;5.90;99.90;;;;;;6060285;23;20328;-80
2022/01/14 03:43:12;;;;;;;1110.03;593.92;;;5.90;99.90;;;;;;6060822;23;20042;-79
2022/01/14 03:45:39;;;;;;;1121.00;617.00;;;5.90;99.90;;;;;;6061230;23;20023;-80
2022/01/14 03:48:06;;;;;;;1095.63;673.63;;;5.90;99.90;;;;;;6062177;23;20631;-79
2022/01/14 03:50:33;;;;;;;1075.45;644.33;;;5.90;99.90;;;;;;6060835;23;20086;-80
2022/01/14 03:52:58;;;;;;;1173.90;715.70;;;6.00;99.90;;;;;;6062698;23;20034;-80
2022/01/14 03:55:24;;;;;;;1091.78;653.60;;;6.00;99.90;;;;;;6062009;23;20087;-80
2022/01/14 03:57:50;;;;;;;1076.60;641.20;;;6.00;99.90;;;;;;6061635;23;20030;-79
2022/01/14 04:00:17;;;;;;;1040.85;492.13;;;6.00;99.90;;;;;;6061621;23;20127;-79
2022/01/14 04:02:44;;;;;;;1044.38;586.47;;;6.00;99.90;;;;;;6062534;23;20033;-80
2022/01/14 04:05:10;;;;;;;1057.85;592.95;;;6.00;99.90;;;;;;6061583;23;20348;-80
2022/01/14 04:07:36;;;;;;;1027.57;547.80;;;6.00;99.90;;;;;;6064502;23;20480;-80
2022/01/14 04:10:02;;;;;;;1151.50;653.20;;;6.00;99.90;;;;;;6079736;23;20029;-80
2022/01/14 04:12:43;;;;;;;1085.32;649.80;;;6.00;99.90;;;;;;6067405;23;20030;-80
2022/01/14 04:17:54;;;;;;;1205.60;746.40;;;6.00;99.90;;;;;;6090725;23;20050;-80
2022/01/14 04:20:20;;;;;;;1158.60;710.63;;;6.10;99.90;;;;;;6091175;23;20025;-80
2022/01/14 04:22:48;;;;;;;1203.47;795.28;;;6.10;99.90;;;;;;6067269;23;20018;-79
2022/01/14 04:25:14;;;;;;;1106.53;664.42;;;6.00;99.90;;;;;;6090671;23;20030;-79
2022/01/14 04:27:39;;;;;;;1177.75;782.13;;;6.00;99.90;;;;;;6091568;23;20424;-80
2022/01/14 04:30:05;;;;;;;1178.47;775.40;;;6.00;99.90;;;;;;6065336;23;20022;-79
2022/01/14 04:32:31;;;;;;;1198.03;753.83;;;6.00;99.90;;;;;;6091871;23;20049;-81
2022/01/14 04:34:56;;;;;;;1189.82;791.40;;;6.00;99.90;;;;;;6066039;23;20019;-79
2022/01/14 04:37:22;;;;;;;1151.68;747.45;;;6.00;99.90;;;;;;6066959;23;20029;-79
2022/01/14 04:39:48;;;;;;;1180.05;772.35;;;5.90;99.90;;;;;;6063161;23;20046;-79
2022/01/14 04:42:13;;;;;;;1223.95;812.63;;;5.90;99.90;;;;;;6092520;23;20466;-79
2022/01/14 04:44:39;;;;;;;1220.38;860.10;;;5.90;99.90;;;;;;6066432;23;20065;-79
2022/01/14 04:47:19;;;;;;;1294.38;913.10;;;5.90;99.90;;;;;;6065739;23;20026;-79
2022/01/14 04:49:44;;;;;;;1318.07;944.20;;;5.90;99.90;;;;;;6066381;23;20018;-79
2022/01/14 04:52:10;;;;;;;1308.22;942.30;;;5.90;99.90;;;;;;6066053;23;20030;-79
2022/01/14 04:54:36;;;;;;;1198.60;846.38;;;5.90;99.90;;;;;;6066441;23;20018;-79
2022/01/14 04:57:02;;;;;;;1250.40;904.67;;;5.90;99.90;;;;;;6092697;23;20339;-79
2022/01/14 04:59:28;;;;;;;1281.20;915.28;;;5.90;99.90;;;;;;6065212;23;20032;-79
2022/01/14 05:01:57;;;;;;;1301.05;844.75;;;5.90;99.90;;;;;;6065583;23;20018;-79
2022/01/14 05:04:22;;;;;;;1332.10;904.22;;;5.90;99.90;;;;;;6066240;23;20018;-80
2022/01/14 05:06:55;;;;;;;1281.78;884.17;;;5.90;99.90;;;;;;6066153;23;20528;-79
2022/01/14 05:09:28;;;;;;;1283.30;932.92;;;5.90;99.90;;;;;;6061356;23;20062;-79
2022/01/14 05:12:04;;;;;;;1327.72;953.70;;;5.90;99.90;;;;;;6061669;23;20565;-79
2022/01/14 05:14:33;;;;;;;1307.90;901.67;;;5.90;99.90;;;;;;6060437;23;20023;-81
2022/01/14 05:16:59;;;;;;;1296.72;934.70;;;5.90;99.90;;;;;;6061373;23;20158;-79
2022/01/14 05:19:24;;;;;;;1363.68;943.35;;;5.90;99.90;;;;;;6061179;23;20070;-79
2022/01/14 05:21:50;;;;;;;1255.45;886.72;;;5.90;99.90;;;;;;6060770;23;20038;-79
2022/01/14 05:24:15;;;;;;;1259.82;854.70;;;5.90;99.90;;;;;;6061160;23;20022;-79
2022/01/14 05:26:41;;;;;;;1253.47;864.72;;;5.90;99.90;;;;;;6060910;23;20467;-80
2022/01/14 05:29:07;;;;;;;1388.75;999.90;;;5.90;99.90;;;;;;6059996;23;20117;-80
2022/01/14 05:31:41;;;;;;;1373.35;984.80;;;5.90;99.90;;;;;;6060530;23;20114;-80
2022/01/14 05:34:07;;;;;;;1385.88;953.40;;;5.90;99.90;;;;;;6060821;23;20055;-79
2022/01/14 05:36:32;;;;;;;1360.22;967.70;;;5.90;99.90;;;;;;6060089;23;20026;-79
2022/01/14 05:38:58;;;;;;;1376.93;972.50;;;5.90;99.90;;;;;;6059497;23;20047;-79
2022/01/14 05:41:24;;;;;;;1354.25;958.97;;;5.90;99.90;;;;;;6059734;23;20049;-80
2022/01/14 05:43:49;;;;;;;1389.75;993.78;;;5.90;99.90;;;;;;6062807;23;20019;-80
2022/01/14 05:46:15;;;;;;;1452.80;999.90;;;5.90;99.90;;;;;;6060415;23;20015;-80
2022/01/14 05:48:40;;;;;;;1373.07;978.10;;;5.90;99.90;;;;;;6060047;23;20036;-80
2022/01/14 05:51:06;;;;;;;1355.22;964.70;;;5.90;99.90;;;;;;6060973;23;20086;-80
2022/01/14 05:53:31;;;;;;;1390.93;974.55;;;5.90;99.90;;;;;;6061507;23;20396;-79
2022/01/14 05:55:57;;;;;;;1297.45;937.05;;;5.90;99.90;;;;;;6059475;23;20019;-80
2022/01/14 05:58:23;;;;;;;1384.63;978.60;;;5.90;99.90;;;;;;6060935;23;20445;-80
2022/01/14 06:00:48;;;;;;;1269.60;906.28;;;5.90;99.90;;;;;;6059206;23;20022;-80
2022/01/14 06:03:14;;;;;;;1296.57;911.60;;;5.90;99.90;;;;;;6059310;23;20377;-80
2022/01/14 06:05:39;;;;;;;1314.80;932.90;;;5.90;99.90;;;;;;6060898;23;20021;-80
2022/01/14 06:08:05;;;;;;;1282.90;871.85;;;5.90;99.90;;;;;;6063634;23;20090;-80
2022/01/14 06:10:31;;;;;;;1175.45;764.20;;;5.90;99.90;;;;;;6059373;23;20022;-80
2022/01/14 06:12:57;;;;;;;1324.00;951.33;;;5.90;99.90;;;;;;6061710;23;20082;-80
2022/01/14 06:15:23;;;;;;;1414.45;998.70;;;5.90;99.90;;;;;;6060644;23;20433;-79
2022/01/14 06:17:48;;;;;;;1414.07;993.28;;;5.90;99.90;;;;;;6060478;23;20030;-80
2022/01/14 06:20:14;;;;;;;1277.13;890.10;;;5.90;99.90;;;;;;6060623;23;20019;-79
2022/01/14 06:22:40;;;;;;;1304.22;919.08;;;5.50;99.90;;;;;;6063341;23;20043;-79
2022/01/14 06:25:06;;;;;;;1311.45;918.08;;;5.90;99.90;;;;;;6059381;23;20025;-79
2022/01/14 06:27:32;;;;;;;1332.95;965.60;;;5.90;99.90;;;;;;6060672;23;20045;-79
2022/01/14 06:29:59;;;;;;;1337.57;920.42;;;5.90;99.90;;;;;;6060282;23;20015;-79
2022/01/14 06:32:25;;;;;;;1296.03;893.03;;;5.90;99.90;;;;;;6057736;23;20023;-79
2022/01/14 06:34:51;;;;;;;1262.43;869.65;;;6.00;99.90;;;;;;6059498;23;20743;-79
2022/01/14 06:37:17;;;;;;;1286.57;813.70;;;5.90;99.90;;;;;;6060419;23;20019;-78
2022/01/14 06:39:43;;;;;;;1248.80;846.80;;;6.00;99.90;;;;;;6060368;23;20034;-80
2022/01/14 06:42:09;;;;;;;1260.65;797.40;;;6.00;99.90;;;;;;6060267;23;20027;-78
2022/01/14 06:44:34;;;;;;;1198.35;724.60;;;6.00;99.90;;;;;;6084096;23;20078;-79
2022/01/14 06:47:01;;;;;;;1289.97;926.83;;;6.00;99.90;;;;;;6060672;23;20049;-79
2022/01/14 06:49:30;;;;;;;1417.90;999.90;;;6.00;99.90;;;;;;6062632;23;20077;-79
2022/01/14 06:51:56;;;;;;;1386.32;991.55;;;6.00;99.90;;;;;;6059194;23;20064;-80
2022/01/14 06:54:25;;;;;;;1406.28;990.63;;;6.00;99.90;;;;;;6060739;23;20018;-80
2022/01/14 06:56:53;;;;;;;1365.05;978.47;;;6.00;99.90;;;;;;6061762;23;20027;-80
2022/01/14 06:59:19;;;;;;;1346.65;945.13;;;6.00;99.90;;;;;;6059582;23;20062;-80
2022/01/14 07:01:44;;;;;;;1370.68;987.13;;;6.00;99.90;;;;;;6060579;23;20054;-81
2022/01/14 07:04:11;;;;;;;1314.10;938.45;;;6.10;99.90;;;;;;6061096;23;20043;-81
2022/01/14 07:06:36;;;;;;;1315.28;951.40;;;6.00;99.90;;;;;;6060029;23;20093;-80
2022/01/14 07:09:02;;;;;;;1384.40;998.78;;;6.00;99.90;;;;;;6065245;23;20041;-81
2022/01/14 07:11:34;;;;;;;1459.13;999.90;;;6.00;99.90;;;;;;6064184;23;20023;-81
2022/01/14 07:14:00;;;;;;;1353.53;971.50;;;6.10;99.90;;;;;;6063796;23;20455;-79
2022/01/14 07:16:26;;;;;;;1469.85;999.90;;;6.10;99.90;;;;;;6090533;23;20093;-80
2022/01/14 07:18:51;;;;;;;1422.57;999.90;;;6.10;99.90;;;;;;6066160;23;20395;-80
2022/01/14 07:21:17;;;;;;;1382.10;995.38;;;6.10;99.90;;;;;;6063432;23;20019;-80
2022/01/14 07:23:43;;;;;;;1377.82;982.45;;;6.10;99.90;;;;;;6065957;23;20024;-80
2022/01/14 07:26:08;;;;;;;1361.13;962.78;;;6.10;99.90;;;;;;6092463;23;20030;-80
2022/01/14 07:28:34;;;;;;;1369.43;992.80;;;6.10;99.90;;;;;;6066675;23;20019;-81
2022/01/14 07:30:59;;;;;;;1350.22;915.65;;;6.00;99.90;;;;;;6092675;23;20030;-81
2022/01/14 07:33:25;;;;;;;1357.78;965.33;;;6.10;99.90;;;;;;6094636;23;20021;-80
2022/01/14 07:35:51;;;;;;;1346.20;940.42;;;6.10;99.90;;;;;;6091591;23;20014;-80
2022/01/14 07:38:16;;;;;;;1398.15;997.83;;;6.10;99.90;;;;;;6093045;23;20022;-81
2022/01/14 07:40:42;;;;;;;1349.15;971.50;;;6.10;99.90;;;;;;6067161;23;20019;-81
2022/01/14 07:43:08;;;;;;;1317.82;919.75;;;6.20;99.90;;;;;;6066581;23;20018;-79
2022/01/14 07:45:34;;;;;;;1303.05;945.88;;;6.10;99.90;;;;;;6067057;23;20030;-81
2022/01/14 07:47:59;;;;;;;1295.05;914.83;;;6.10;99.90;;;;;;6065299;23;20025;-80
2022/01/14 07:50:28;;;;;;;1344.43;952.72;;;6.10;99.90;;;;;;6067161;23;20030;-80
2022/01/14 07:52:54;;;;;;;1428.43;999.53;;;6.20;99.90;;;;;;6093221;23;20093;-79
2022/01/14 07:55:19;;;;;;;1358.00;974.28;;;6.20;99.90;;;;;;6066022;23;20060;-81
2022/01/14 07:57:46;;;;;;;1300.60;925.03;;;6.20;99.90;;;;;;6066743;23;20018;-80
2022/01/14 08:00:12;;;;;;;1329.07;931.72;;;6.20;99.90;;;;;;6066281;23;20395;-80
2022/01/14 08:02:39;;;;;;;1345.20;961.30;;;6.20;99.90;;;;;;6066668;23;20496;-80
2022/01/14 08:05:05;;;;;;;1366.88;983.63;;;6.20;99.90;;;;;;6093042;23;20065;-81
2022/01/14 08:07:33;;;;;;;1314.50;942.40;;;6.20;99.90;;;;;;6065120;23;21005;-81
2022/01/14 08:09:59;;;;;;;1106.68;647.90;;;6.20;99.90;;;;;;6065129;23;20574;-82
2022/01/14 08:12:25;;;;;;;1220.68;840.03;;;6.70;99.90;;;;;;6065601;23;20058;-79
2022/01/14 08:14:53;;;;;;;1293.18;904.83;;;6.30;99.90;;;;;;6092489;23;20087;-79
2022/01/14 08:17:20;;;;;;;1207.05;809.35;;;6.20;99.90;;;;;;6065290;23;20022;-79
2022/01/14 08:19:46;;;;;;;1288.70;912.35;;;6.30;99.90;;;;;;6066711;23;20019;-79
2022/01/14 08:22:12;;;;;;;1307.45;926.45;;;6.30;99.90;;;;;;6065905;23;20061;-80
2022/01/14 08:24:37;;;;;;;1236.05;858.63;;;6.30;99.90;;;;;;6066573;23;20019;-80
2022/01/14 08:27:05;;;;;;;1188.30;784.45;;;6.80;99.90;;;;;;6066537;23;20022;-80
2022/01/14 08:29:32;;;;;;;1278.95;823.95;;;6.30;99.90;;;;;;6066303;23;20026;-80
2022/01/14 08:31:58;;;;;;;1214.03;732.72;;;6.40;99.90;;;;;;6065811;23;20046;-80
2022/01/14 08:34:24;;;;;;;1271.28;829.22;;;6.40;99.90;;;;;;6067372;23;20023;-79
2022/01/14 08:36:50;;;;;;;1161.60;756.20;;;6.40;99.90;;;;;;6065999;23;20022;-81
2022/01/14 08:39:16;;;;;;;1180.35;762.50;;;6.40;99.90;;;;;;6065004;23;20037;-81
2022/01/14 08:41:41;;;;;;;1279.82;928.38;;;6.50;99.90;;;;;;6066295;23;20403;-81
2022/01/14 08:44:08;;;;;;;1248.65;879.30;;;6.50;99.90;;;;;;6091650;23;20014;-81
2022/01/14 08:46:34;;;;;;;1195.88;718.28;;;6.50;99.90;;;;;;6066039;23;20014;-81
2022/01/14 08:49:01;;;;;;;1288.75;937.10;;;6.50;99.90;;;;;;6066066;23;20006;-81
2022/01/14 08:51:29;;;;;;;1320.47;965.10;;;6.60;99.90;;;;;;6065209;23;20069;-81
2022/01/14 08:53:57;;;;;;;1342.43;952.83;;;6.50;99.90;;;;;;6066938;23;20339;-81
2022/01/14 08:56:23;;;;;;;1395.75;968.90;;;6.50;99.90;;;;;;6092107;23;20101;-81
2022/01/14 08:58:48;;;;;;;1280.20;890.30;;;6.50;99.90;;;;;;6089791;23;20054;-82
2022/01/14 09:01:14;;;;;;;1222.57;845.15;;;6.50;99.90;;;;;;6065905;23;20027;-81
2022/01/14 09:03:40;;;;;;;1295.78;920.00;;;6.50;99.90;;;;;;6067189;23;20019;-81
2022/01/14 09:06:05;;;;;;;1304.32;942.40;;;6.50;99.90;;;;;;6065137;23;20022;-80
2022/01/14 09:08:31;;;;;;;1261.25;875.15;;;6.60;99.90;;;;;;6066475;23;20025;-81
2022/01/14 09:10:57;;;;;;;1207.13;838.70;;;6.60;99.90;;;;;;6065956;23;20093;-81
2022/01/14 09:13:22;;;;;;;1068.20;601.45;;;6.60;99.90;;;;;;6065345;23;20032;-81
2022/01/14 09:15:48;;;;;;;1118.53;677.40;;;6.60;99.90;;;;;;6065660;23;20400;-80
2022/01/14 09:18:13;;;;;;;1308.15;955.25;;;6.60;99.90;;;;;;6065908;23;20026;-81
2022/01/14 09:20:39;;;;;;;1334.18;973.00;;;6.60;99.90;;;;;;6064466;23;20018;-82
2022/01/14 09:23:11;;;;;;;1177.80;799.28;;;6.70;99.90;;;;;;6066639;23;20022;-81
2022/01/14 09:25:37;;;;;;;1144.95;740.72;;;6.70;99.90;;;;;;6090350;23;20089;-80
2022/01/14 09:28:03;;;;;;;1302.47;929.30;;;6.70;99.90;;;;;;6090477;23;20018;-81
2022/01/14 09:30:29;;;;;;;1268.30;811.45;;;6.70;99.90;;;;;;6064076;23;20439;-81
2022/01/14 09:32:57;;;;;;;1409.25;999.90;;;6.70;99.90;;;;;;6065176;23;20019;-81
2022/01/14 09:35:23;;;;;;;1331.53;953.33;;;6.70;99.90;;;;;;6064104;23;20030;-81
2022/01/14 09:37:50;;;;;;;1354.13;982.75;;;6.80;99.90;;;;;;6066816;23;20014;-82
2022/01/14 09:40:16;;;;;;;1271.90;930.03;;;6.80;99.90;;;;;;6065685;23;20023;-82
2022/01/14 09:42:49;;;;;;;1280.45;931.95;;;6.80;99.90;;;;;;6064166;23;20419;-81
2022/01/14 09:45:17;;;;;;;1233.20;871.60;;;6.80;99.90;;;;;;6065215;23;20498;-81
2022/01/14 09:47:47;;;;;;;1315.57;953.97;;;6.90;99.90;;;;;;6064836;23;20053;-81
2022/01/14 09:50:13;;;;;;;1335.85;967.92;;;6.90;99.90;;;;;;6064497;23;20256;-81
2022/01/14 09:52:39;;;;;;;1330.38;938.03;;;6.90;99.90;;;;;;6067125;23;20022;-78
2022/01/14 09:55:05;;;;;;;1330.50;947.22;;;6.90;99.90;;;;;;6067916;23;20024;-80
2022/01/14 09:57:30;;;;;;;1456.22;942.42;;;7.00;99.90;;;;;;6070780;23;20403;-80
2022/01/14 09:59:56;;;;;;;1344.63;960.13;;;7.00;99.90;;;;;;6069874;23;20018;-80
2022/01/14 10:02:40;;;;;;;1393.80;987.33;;;7.00;99.90;;;;;;6068850;23;20053;-79
2022/01/14 10:05:08;;;;;;;1189.05;687.80;;;7.20;99.90;;;;;;6068512;23;20029;-79
2022/01/14 10:07:34;;;;;;;1332.43;970.75;;;7.00;99.90;;;;;;6066650;23;20425;-79
2022/01/14 10:10:02;;;;;;;1284.97;934.25;;;7.00;99.90;;;;;;6066877;23;20018;-81
2022/01/14 10:12:33;;;;;;;1299.25;924.80;;;7.00;99.90;;;;;;6092176;23;20038;-80
2022/01/14 10:15:02;;;;;;;1332.35;947.08;;;7.00;99.90;;;;;;6067605;23;20022;-87
2022/01/14 10:17:45;;;;;;;1295.30;912.72;;;7.00;99.90;;;;;;6067304;23;20118;-82
2022/01/14 10:20:14;;;;;;;1343.22;971.30;;;7.00;99.90;;;;;;6065939;23;20089;-82
2022/01/14 10:22:44;;;;;;;1264.53;881.63;;;7.00;99.90;;;;;;6065404;23;20455;-80
2022/01/14 10:25:18;;;;;;;1201.03;802.13;;;7.00;99.90;;;;;;6066166;23;20102;-81
2022/01/14 10:27:51;;;;;;;1207.65;880.40;;;7.00;99.90;;;;;;6064264;23;20228;-82
2022/01/14 10:30:19;;;;;;;1265.15;892.65;;;7.10;99.90;;;;;;6063209;23;20030;-81
2022/01/14 10:33:06;;;;;;;1257.57;903.85;;;7.10;99.90;;;;;;6065299;23;20097;-87
2022/01/14 10:35:41;;;;;;;1260.90;861.17;;;7.10;99.90;;;;;;6090824;23;20030;-82
2022/01/14 10:38:08;;;;;;;1198.95;826.40;;;7.10;99.90;;;;;;6065480;23;20025;-81
2022/01/14 10:40:39;;;;;;;1225.00;840.95;;;7.10;99.90;;;;;;6065953;23;20023;-81
2022/01/14 10:43:10;;;;;;;1215.07;750.75;;;7.10;99.90;;;;;;6066894;23;20019;-81
2022/01/14 10:45:37;;;;;;;1318.68;922.50;;;7.10;99.90;;;;;;6089640;23;20018;-81
2022/01/14 10:48:32;;;;;;;1316.20;942.60;;;7.10;99.90;;;;;;6066201;23;20105;-81
2022/01/14 10:51:04;;;;;;;1290.22;919.83;;;7.20;99.90;;;;;;6079707;23;20141;-85
2022/01/14 10:53:37;;;;;;;1154.90;746.67;;;7.20;99.90;;;;;;6070337;23;20021;-83
2022/01/14 10:56:17;;;;;;;1182.15;700.88;;;7.20;99.90;;;;;;6062741;23;20403;-86
2022/01/14 10:58:44;;;;;;;1121.88;734.92;;;7.20;99.90;;;;;;6065425;23;20018;-85
2022/01/14 11:01:24;;;;;;;1221.38;814.80;;;7.20;99.90;;;;;;6067016;23;20022;-82
2022/01/14 11:04:10;;;;;;;1253.80;854.25;;;7.20;99.90;;;;;;6067452;23;20049;-82
2022/01/14 11:06:40;;;;;;;1270.13;895.17;;;7.20;99.90;;;;;;6066243;23;20026;-81
2022/01/14 11:09:18;;;;;;;1229.25;810.70;;;7.30;99.90;;;;;;6090699;23;20025;-81
2022/01/14 11:11:48;;;;;;;1140.90;715.20;;;7.30;99.90;;;;;;6092413;23;20058;-81
2022/01/14 11:14:15;;;;;;;1162.72;664.05;;;7.30;99.90;;;;;;6064838;23;20018;-82
2022/01/14 11:16:42;;;;;;;1042.20;463.27;;;7.30;99.90;;;;;;6066710;23;20030;-82
2022/01/14 11:19:09;;;;;;;1087.45;616.00;;;7.30;99.90;;;;;;6066086;23;20440;-81
2022/01/14 11:24:28;;;;;;;1315.85;913.08;;;7.70;99.90;;;;;;6068378;23;20022;-81
2022/01/14 11:27:01;;;;;;;1068.32;527.33;;;7.30;99.90;;;;;;6067116;23;20030;-81
2022/01/14 11:29:33;;;;;;;1182.00;765.67;;;7.30;99.90;;;;;;6067392;23;20284;-81
2022/01/14 11:32:03;;;;;;;1178.00;722.00;;;7.40;99.90;;;;;;6067605;23;20018;-82
2022/01/14 11:34:42;;;;;;;1176.05;815.25;;;7.40;99.90;;;;;;6067188;23;20058;-81
2022/01/14 11:37:14;;;;;;;1089.07;634.65;;;7.40;99.90;;;;;;6093136;23;20015;-82
2022/01/14 11:39:53;;;;;;;1090.28;637.33;;;7.40;99.90;;;;;;6067863;23;20045;-82
2022/01/14 11:42:19;;;;;;;1097.35;650.22;;;7.40;99.90;;;;;;6065872;23;20037;-82
2022/01/14 11:44:56;;;;;;;1216.72;873.40;;;7.40;99.90;;;;;;6067227;23;20030;-82
2022/01/14 11:47:25;;;;;;;1073.78;599.10;;;7.40;99.90;;;;;;6065759;23;20023;-81
2022/01/14 11:49:52;;;;;;;1110.35;579.17;;;7.40;99.90;;;;;;6067933;23;20019;-80
2022/01/14 11:52:38;;;;;;;1181.60;672.42;;;7.40;99.90;;;;;;6065714;23;20029;-80
2022/01/14 11:55:19;;;;;;;1117.15;679.03;;;7.50;99.90;;;;;;6091712;23;20010;-79
2022/01/14 11:57:50;;;;;;;1132.38;723.30;;;7.50;99.90;;;;;;6066903;23;20026;-79
2022/01/14 12:00:30;;;;;;;1136.40;727.97;;;7.50;99.90;;;;;;6065512;23;20018;-79
2022/01/14 12:02:57;;;;;;;1264.55;925.20;;;7.50;99.90;;;;;;6065730;23;20034;-80
2022/01/14 12:05:28;;;;;;;1230.78;832.05;;;7.50;99.90;;;;;;6091836;23;20037;-81
2022/01/14 12:08:10;;;;;;;1057.22;563.53;;;7.50;99.90;;;;;;6066453;23;20011;-80
2022/01/14 12:10:59;;;;;;;;;;;7.50;99.90;;;;;;6067040;23;20026;-81
2022/01/14 12:13:37;;;;;;;1145.50;624.15;;;7.50;99.90;;;;;;6062562;23;19996;-80
2022/01/14 12:16:36;;;;;;;1074.50;520.47;;;7.50;99.90;;;;;;6067372;23;20029;-81
2022/01/14 12:19:03;;;;;;;1176.32;670.58;;;7.50;99.90;;;;;;6066372;23;20054;-80
2022/01/14 12:21:40;;;;;;;1166.97;751.63;;;7.70;99.90;;;;;;6065864;23;20072;-80
2022/01/14 12:24:15;;;;;;;1070.85;584.85;;;7.50;99.90;;;;;;6069031;23;20137;-81
2022/01/14 12:26:52;;;;;;;1100.80;636.30;;;7.50;99.90;;;;;;6070039;23;20030;-80
2022/01/14 12:29:19;;;;;;;1107.03;661.10;;;7.60;99.90;;;;;;6070742;23;20023;-80
2022/01/14 12:32:04;;;;;;;1140.22;701.33;;;7.50;99.90;;;;;;6095771;23;20026;-80
2022/01/14 12:34:31;;;;;;;1131.00;613.58;;;7.50;99.90;;;;;;6066920;23;20344;-82
2022/01/14 12:36:57;;;;;;;1072.70;506.35;;;7.60;99.90;;;;;;6066347;23;20045;-82
2022/01/14 12:39:22;;;;;;;1177.65;694.17;;;7.50;99.90;;;;;;6041717;23;20022;-80
2022/01/14 12:41:56;;;;;;;1219.05;724.00;;;7.50;99.90;;;;;;6063279;23;20028;-81
2022/01/14 12:44:23;;;;;;;1243.93;816.10;;;7.50;99.90;;;;;;6065632;23;20081;-81
2022/01/14 12:46:59;;;;;;;1148.57;707.97;;;7.60;99.90;;;;;;6065112;23;20018;-81
2022/01/14 12:49:29;;;;;;;1136.43;670.05;;;7.60;99.90;;;;;;6061386;23;20022;-84
2022/01/14 12:52:10;;;;;;;1141.95;690.53;;;7.50;99.90;;;;;;6061136;23;20049;-81
2022/01/14 12:54:46;;;;;;;1128.25;703.63;;;7.60;99.90;;;;;;6066396;23;20153;-82
2022/01/14 12:57:16;;;;;;;1104.57;629.67;;;7.50;99.90;;;;;;6064852;23;20029;-81
2022/01/14 12:59:45;;;;;;;1100.05;617.28;;;7.50;99.90;;;;;;6091915;23;20387;-82
2022/01/14 13:02:19;;;;;;;1180.10;671.80;;;7.60;99.90;;;;;;6065561;23;20582;-82
2022/01/14 13:04:45;;;;;;;1142.38;682.33;;;7.50;99.90;;;;;;6066290;23;20014;-82
2022/01/14 13:07:12;;;;;;;1134.85;612.17;;;7.50;99.90;;;;;;6065823;23;20022;-82
2022/01/14 13:09:41;;;;;;;1117.05;638.42;;;7.80;99.90;;;;;;6061880;23;20025;-82
2022/01/14 13:12:12;;;;;;;1073.82;510.13;;;7.50;99.90;;;;;;6060194;23;20019;-82
2022/01/14 13:14:50;;;;;;;1098.82;542.35;;;7.60;99.90;;;;;;6063026;23;20018;-82
2022/01/14 13:17:22;;;;;;;1106.43;626.65;;;7.50;99.90;;;;;;6061996;23;20396;-82
2022/01/14 13:19:48;;;;;;;1118.72;572.72;;;7.60;99.90;;;;;;6059957;23;20101;-81
2022/01/14 13:22:16;;;;;;;1099.22;600.55;;;7.60;99.90;;;;;;6060809;23;20365;-81
2022/01/14 13:24:50;;;;;;;1083.70;590.35;;;7.60;99.90;;;;;;6061089;23;20470;-82
2022/01/14 13:27:27;;;;;;;1082.07;505.98;;;7.60;99.90;;;;;;6061729;23;20026;-81
2022/01/14 13:29:59;;;;;;;1077.82;492.40;;;7.60;99.90;;;;;;6063381;23;20045;-81
2022/01/14 13:32:30;;;;;;;1087.13;519.88;;;7.60;99.90;;;;;;6061461;23;20019;-82
2022/01/14 13:35:04;;;;;;;1126.47;593.13;;;7.60;99.90;;;;;;6059662;23;20066;-82
2022/01/14 13:37:30;;;;;;;1100.32;512.05;;;7.60;99.90;;;;;;6060148;23;20094;-82
2022/01/14 13:40:12;;;;;;;1098.47;609.35;;;7.70;99.90;;;;;;6061046;23;20067;-81
2022/01/14 13:42:44;;;;;;;1104.70;613.45;;;7.70;99.90;;;;;;6061109;23;20030;-82
2022/01/14 13:45:25;;;;;;;1087.70;516.78;;;7.70;99.90;;;;;;6060515;23;20102;-82
2022/01/14 13:48:10;;;;;;;1100.97;525.53;;;7.60;99.90;;;;;;6060984;23;20456;-82
2022/01/14 13:51:01;;;;;;;1085.63;595.45;;;7.70;99.90;;;;;;6061025;23;20019;-83
2022/01/14 13:53:34;;;;;;;1118.03;563.93;;;7.70;99.90;;;;;;6060645;23;20518;-83
2022/01/14 13:56:10;;;;;;;1124.57;642.10;;;7.60;99.90;;;;;;6060825;23;20026;-83
2022/01/14 13:58:38;;;;;;;1095.97;624.83;;;7.60;99.90;;;;;;6060342;23;20031;-83
2022/01/14 14:01:06;;;;;;;1071.43;570.83;;;7.60;99.90;;;;;;6060604;23;20030;-83
2022/01/14 14:03:46;;;;;;;1083.80;516.90;;;7.60;99.90;;;;;;6058038;23;20433;-83
2022/01/14 14:06:25;;;;;;;1097.78;620.85;;;7.60;99.90;;;;;;6060173;23;20034;-82
2022/01/14 14:17:04;;;;;;;1099.70;640.83;;;7.60;99.90;;;;;;6062724;23;20026;-82
2022/01/14 14:19:48;;;;;;;1100.32;630.53;;;7.60;99.90;;;;;;6065005;23;20094;-83
2022/01/14 14:22:18;;;;;;;1116.78;678.63;;;7.60;99.90;;;;;;6064634;23;20026;-82
2022/01/14 14:25:02;;;;;;;1134.20;619.00;;;7.60;99.90;;;;;;6091786;23;20346;-82
2022/01/14 14:27:28;;;;;;;1142.88;640.78;;;7.60;99.90;;;;;;6065027;23;20018;-82
2022/01/14 14:29:57;;;;;;;1099.85;623.63;;;7.50;99.90;;;;;;6064367;23;20049;-82
2022/01/14 14:32:27;;;;;;;1086.70;549.00;;;7.60;99.90;;;;;;6064164;23;20033;-82
2022/01/14 14:34:58;;;;;;;1068.25;589.63;;;7.50;99.90;;;;;;6065130;23;20072;-83
2022/01/14 14:37:25;;;;;;;1119.93;588.00;;;7.50;99.90;;;;;;6063472;23;20019;-82
2022/01/14 14:39:51;;;;;;;1087.15;612.63;;;7.50;99.90;;;;;;6064491;23;20022;-82
2022/01/14 14:42:17;;;;;;;1154.28;726.95;;;7.50;99.90;;;;;;6062019;23;20189;-82
2022/01/14 14:44:43;;;;;;;1091.90;597.20;;;7.50;99.90;;;;;;6062596;23;20018;-82
2022/01/14 14:47:11;;;;;;;1091.43;618.10;;;7.50;99.90;;;;;;6064132;23;20316;-82
2022/01/14 14:49:38;;;;;;;1113.28;559.00;;;7.50;99.90;;;;;;6090284;23;20076;-82
2022/01/14 14:52:04;;;;;;;1087.57;597.00;;;7.50;99.90;;;;;;6088235;23;20026;-81